createdAt,value
2018-08-08T00:00:55.386Z,5.00
2018-08-08T00:01:59.199Z,5.47
2018-08-08T00:03:04.191Z,4.30
2018-08-08T00:04:08.665Z,4.30
2018-08-08T00:05:13.109Z,4.25
2018-08-08T00:06:17.205Z,5.00
2018-08-08T00:07:21.485Z,4.50
2018-08-08T00:08:26.316Z,5.08
2018-08-08T00:09:30.760Z,4.92
2018-08-08T00:10:34.505Z,4.50
2018-08-08T00:11:38.245Z,4.33
2018-08-08T00:12:42.936Z,4.20
2018-08-08T00:13:46.809Z,4.67
2018-08-08T00:14:50.549Z,4.72
2018-08-08T00:15:54.980Z,4.90
2018-08-08T00:16:59.681Z,4.58
2018-08-08T00:18:03.248Z,4.03
2018-08-08T00:19:06.823Z,4.97
2018-08-08T00:20:10.713Z,4.28
2018-08-08T00:21:14.278Z,4.25
2018-08-08T00:22:17.800Z,4.35
2018-08-08T00:23:21.312Z,4.37
2018-08-08T00:24:24.834Z,4.87
2018-08-08T00:25:28.411Z,4.58
2018-08-08T00:26:34.942Z,5.22
2018-08-08T00:27:40.183Z,4.67
2018-08-08T00:28:56.786Z,4.53
2018-08-08T00:30:00.291Z,4.55
2018-08-08T00:31:03.849Z,4.47
2018-08-08T00:32:07.325Z,4.62
2018-08-08T00:33:11.601Z,5.03
2018-08-08T00:34:15.205Z,4.65
2018-08-08T00:35:18.736Z,5.00
2018-08-08T00:36:22.548Z,4.80
2018-08-08T00:37:27.107Z,5.42
2018-08-08T00:39:08.652Z,4.30
2018-08-08T00:40:13.777Z,4.60
2018-08-08T00:41:17.349Z,5.17
2018-08-08T00:42:21.013Z,4.80
2018-08-08T00:43:24.484Z,4.70
2018-08-08T00:44:28.538Z,4.97
2018-08-08T00:45:32.089Z,4.95
2018-08-08T00:46:35.624Z,5.10
2018-08-08T00:47:39.609Z,5.10
2018-08-08T00:48:43.118Z,4.80
2018-08-08T00:49:46.777Z,4.92
2018-08-08T00:50:51.160Z,5.42
2018-08-08T00:51:55.392Z,5.08
2018-08-08T00:52:58.913Z,4.80
2018-08-08T00:54:02.530Z,4.87
2018-08-08T00:55:06.171Z,5.20
2018-08-08T00:56:09.715Z,4.75
2018-08-08T00:57:13.216Z,5.17
2018-08-08T00:58:17.506Z,4.90
2018-08-08T00:59:21.099Z,4.80
2018-08-08T01:00:25.442Z,5.35
2018-08-08T01:01:29.009Z,4.90
2018-08-08T01:02:33.194Z,4.45
2018-08-08T01:03:36.667Z,5.35
2018-08-08T01:04:40.176Z,4.85
2018-08-08T01:05:43.668Z,5.17
2018-08-08T01:06:47.237Z,4.97
2018-08-08T01:07:50.762Z,5.35
2018-08-08T01:08:54.666Z,4.92
2018-08-08T01:09:58.053Z,4.90
2018-08-08T01:11:01.625Z,5.28
2018-08-08T01:12:05.140Z,5.85
2018-08-08T01:13:08.668Z,5.03
2018-08-08T01:14:12.282Z,4.83
2018-08-08T01:15:16.006Z,4.87
2018-08-08T01:16:19.497Z,5.30
2018-08-08T01:17:23.073Z,4.75
2018-08-08T01:18:27.322Z,5.40
2018-08-08T01:19:30.804Z,5.30
2018-08-08T01:20:34.662Z,5.17
2018-08-08T01:21:38.199Z,5.65
2018-08-08T01:22:41.678Z,5.90
2018-08-08T01:23:45.255Z,5.28
2018-08-08T01:24:48.855Z,5.10
2018-08-08T01:25:52.937Z,5.47
2018-08-08T01:26:56.422Z,5.20
2018-08-08T01:27:59.901Z,5.87
2018-08-08T01:29:03.428Z,5.47
2018-08-08T01:30:09.858Z,5.35
2018-08-08T01:31:13.425Z,5.53
2018-08-08T01:32:16.981Z,5.50
2018-08-08T01:33:20.478Z,5.60
2018-08-08T01:34:24.098Z,6.60
2018-08-08T01:35:28.263Z,5.80
2018-08-08T01:36:31.731Z,5.75
2018-08-08T01:37:35.314Z,6.62
2018-08-08T01:38:38.807Z,7.10
2018-08-08T01:39:43.033Z,6.03
2018-08-08T01:40:47.547Z,5.90
2018-08-08T01:41:51.220Z,4.95
2018-08-08T01:42:55.081Z,5.17
2018-08-08T01:43:59.349Z,5.40
2018-08-08T01:45:02.904Z,5.37
2018-08-08T01:46:07.679Z,5.42
2018-08-08T01:47:11.309Z,5.53
2018-08-08T01:48:15.894Z,5.72
2018-08-08T01:49:19.430Z,5.65
2018-08-08T01:50:23.262Z,5.97
2018-08-08T01:51:26.746Z,5.70
2018-08-08T01:52:30.278Z,5.87
2018-08-08T01:53:33.949Z,5.80
2018-08-08T01:54:37.509Z,5.37
2018-08-08T01:55:40.991Z,5.40
2018-08-08T01:56:44.632Z,5.25
2018-08-08T01:57:48.266Z,6.00
2018-08-08T01:58:51.826Z,6.42
2018-08-08T01:59:58.429Z,5.70
2018-08-08T02:01:01.925Z,6.30
2018-08-08T02:02:05.514Z,5.90
2018-08-08T02:03:09.079Z,5.65
2018-08-08T02:04:12.709Z,6.12
2018-08-08T02:05:17.242Z,6.40
2018-08-08T02:06:20.749Z,6.08
2018-08-08T02:07:24.290Z,6.15
2018-08-08T02:08:28.465Z,6.08
2018-08-08T02:09:31.970Z,6.35
2018-08-08T02:10:36.525Z,6.55
2018-08-08T02:11:40.023Z,6.67
2018-08-08T02:12:43.588Z,6.00
2018-08-08T02:13:47.110Z,7.00
2018-08-08T02:14:50.838Z,6.42
2018-08-08T02:15:54.837Z,6.50
2018-08-08T02:16:58.328Z,5.72
2018-08-08T02:18:01.869Z,6.22
2018-08-08T02:19:05.402Z,5.50
2018-08-08T02:20:10.652Z,6.00
2018-08-08T02:21:14.429Z,6.50
2018-08-08T02:22:17.999Z,6.10
2018-08-08T02:23:21.521Z,5.95
2018-08-08T02:24:25.054Z,6.20
2018-08-08T02:25:28.954Z,6.30
2018-08-08T02:26:32.498Z,6.78
2018-08-08T02:27:36.428Z,6.65
2018-08-08T02:28:39.922Z,6.40
2018-08-08T02:29:43.511Z,7.05
2018-08-08T02:30:47.130Z,6.95
2018-08-08T02:31:51.341Z,6.25
2018-08-08T02:32:55.335Z,6.30
2018-08-08T02:33:58.853Z,5.95
2018-08-08T02:35:02.429Z,5.67
2018-08-08T02:36:05.981Z,5.92
2018-08-08T02:37:09.579Z,6.55
2018-08-08T02:38:13.125Z,6.35
2018-08-08T02:39:16.741Z,6.55
2018-08-08T02:40:20.250Z,6.28
2018-08-08T02:41:23.944Z,6.62
2018-08-08T02:42:27.562Z,6.60
2018-08-08T02:43:31.090Z,6.78
2018-08-08T02:44:34.589Z,7.35
2018-08-08T02:45:38.431Z,6.90
2018-08-08T02:46:41.923Z,7.28
2018-08-08T02:47:45.866Z,6.53
2018-08-08T02:48:49.581Z,7.25
2018-08-08T02:49:53.364Z,6.70
2018-08-08T02:50:56.877Z,6.90
2018-08-08T02:52:00.538Z,6.78
2018-08-08T02:53:04.066Z,6.85
2018-08-08T02:54:07.690Z,6.97
2018-08-08T02:55:12.382Z,6.97
2018-08-08T02:56:15.880Z,7.30
2018-08-08T02:57:19.435Z,6.85
2018-08-08T02:58:22.917Z,7.25
2018-08-08T02:59:26.413Z,7.10
2018-08-08T03:00:29.923Z,7.78
2018-08-08T03:01:34.208Z,7.60
2018-08-08T03:02:38.105Z,6.78
2018-08-08T03:03:42.080Z,7.20
2018-08-08T03:04:45.610Z,7.25
2018-08-08T03:05:49.151Z,6.33
2018-08-08T03:06:52.631Z,6.83
2018-08-08T03:07:56.231Z,7.75
2018-08-08T03:08:59.694Z,7.05
2018-08-08T03:10:03.711Z,6.97
2018-08-08T03:11:07.306Z,7.25
2018-08-08T03:12:10.937Z,6.70
2018-08-08T03:13:14.480Z,7.17
2018-08-08T03:14:17.930Z,6.72
2018-08-08T03:15:21.828Z,6.92
2018-08-08T03:16:25.308Z,7.35
2018-08-08T03:17:28.862Z,8.00
2018-08-08T03:18:32.782Z,7.30
2018-08-08T03:19:36.308Z,6.97
2018-08-08T03:20:39.918Z,7.08
2018-08-08T03:21:43.405Z,7.62
2018-08-08T03:22:47.962Z,6.95
2018-08-08T03:23:51.410Z,6.60
2018-08-08T03:24:55.770Z,5.95
2018-08-08T03:25:59.255Z,7.45
2018-08-08T03:27:03.459Z,6.60
2018-08-08T03:28:06.945Z,7.03
2018-08-08T03:29:10.412Z,6.65
2018-08-08T03:30:19.457Z,6.78
2018-08-08T03:31:22.986Z,6.90
2018-08-08T03:32:26.807Z,6.75
2018-08-08T03:33:30.570Z,6.60
2018-08-08T03:34:34.081Z,7.22
2018-08-08T03:35:37.581Z,6.97
2018-08-08T03:36:41.051Z,6.90
2018-08-08T03:37:44.553Z,7.15
2018-08-08T03:38:48.043Z,7.22
2018-08-08T03:39:51.527Z,6.55
2018-08-08T03:40:55.706Z,8.05
2018-08-08T03:41:59.246Z,7.22
2018-08-08T03:43:02.747Z,7.65
2018-08-08T03:44:06.414Z,7.90
2018-08-08T03:45:11.378Z,7.37
2018-08-08T03:46:14.952Z,7.67
2018-08-08T03:47:18.834Z,7.90
2018-08-08T03:48:22.522Z,7.80
2018-08-08T03:49:25.988Z,7.67
2018-08-08T03:50:29.497Z,7.25
2018-08-08T03:51:32.985Z,7.90
2018-08-08T03:52:36.520Z,8.95
2018-08-08T03:53:39.997Z,8.28
2018-08-08T03:54:44.126Z,7.90
2018-08-08T03:55:47.638Z,8.28
2018-08-08T03:56:51.192Z,7.67
2018-08-08T03:57:54.678Z,7.50
2018-08-08T03:58:58.182Z,8.08
2018-08-08T04:00:01.762Z,8.73
2018-08-08T04:01:05.505Z,8.60
2018-08-08T04:02:09.055Z,8.35
2018-08-08T04:03:12.762Z,7.80
2018-08-08T04:04:16.362Z,7.55
2018-08-08T04:05:20.336Z,7.65
2018-08-08T04:06:24.548Z,7.42
2018-08-08T04:07:28.096Z,7.40
2018-08-08T04:08:32.179Z,7.47
2018-08-08T04:09:36.510Z,7.80
2018-08-08T04:10:40.050Z,7.72
2018-08-08T04:11:43.535Z,8.40
2018-08-08T04:12:47.052Z,7.62
2018-08-08T04:13:50.489Z,7.70
2018-08-08T04:14:54.054Z,7.50
2018-08-08T04:15:57.508Z,7.05
2018-08-08T04:17:01.117Z,7.47
2018-08-08T04:18:05.739Z,6.92
2018-08-08T04:19:09.411Z,6.28
2018-08-08T04:20:13.186Z,7.35
2018-08-08T04:21:16.775Z,6.50
2018-08-08T04:22:20.492Z,7.12
2018-08-08T04:23:23.979Z,7.12
2018-08-08T04:24:27.643Z,7.55
2018-08-08T04:25:31.655Z,6.75
2018-08-08T04:26:35.219Z,6.83
2018-08-08T04:27:39.381Z,7.85
2018-08-08T04:28:43.435Z,6.47
2018-08-08T04:29:47.401Z,6.92
2018-08-08T04:30:50.863Z,8.25
2018-08-08T04:31:54.346Z,7.15
2018-08-08T04:32:57.810Z,6.97
2018-08-08T04:34:01.475Z,7.62
2018-08-08T04:35:05.333Z,7.15
2018-08-08T04:36:09.079Z,7.30
2018-08-08T04:37:13.073Z,7.50
2018-08-08T04:38:16.696Z,7.40
2018-08-08T04:39:20.948Z,6.65
2018-08-08T04:40:24.413Z,7.60
2018-08-08T04:41:27.987Z,9.28
2018-08-08T04:42:31.508Z,8.03
2018-08-08T04:43:35.083Z,8.28
2018-08-08T04:44:38.632Z,8.63
2018-08-08T04:45:42.214Z,8.93
2018-08-08T04:46:45.707Z,8.68
2018-08-08T04:47:49.277Z,9.00
2018-08-08T04:48:52.714Z,8.93
2018-08-08T04:49:56.250Z,8.18
2018-08-08T04:50:59.815Z,8.80
2018-08-08T04:52:03.276Z,9.33
2018-08-08T04:53:06.907Z,8.98
2018-08-08T04:54:10.561Z,9.30
2018-08-08T04:55:15.516Z,9.00
2018-08-08T04:56:19.112Z,8.33
2018-08-08T04:57:22.593Z,6.90
2018-08-08T04:58:26.071Z,8.75
2018-08-08T04:59:30.147Z,8.03
2018-08-08T05:00:33.663Z,9.43
2018-08-08T05:01:37.649Z,9.63
2018-08-08T05:02:41.995Z,10.65
2018-08-08T05:03:45.494Z,9.15
2018-08-08T05:04:49.674Z,10.13
2018-08-08T05:05:53.223Z,8.78
2018-08-08T05:06:56.914Z,9.48
2018-08-08T05:08:00.555Z,12.00
2018-08-08T05:09:06.653Z,10.78
2018-08-08T05:10:12.122Z,10.20
2018-08-08T05:11:15.774Z,9.68
2018-08-08T05:12:19.450Z,10.40
2018-08-08T05:13:23.070Z,10.45
2018-08-08T05:14:26.836Z,10.43
2018-08-08T05:15:30.339Z,9.38
2018-08-08T05:16:33.818Z,10.28
2018-08-08T05:17:37.619Z,11.08
2018-08-08T05:18:41.090Z,10.82
2018-08-08T05:19:44.572Z,10.55
2018-08-08T05:20:48.130Z,11.20
2018-08-08T05:21:51.674Z,11.00
2018-08-08T05:22:55.928Z,10.55
2018-08-08T05:23:59.527Z,10.82
2018-08-08T05:25:03.077Z,9.80
2018-08-08T05:26:06.626Z,10.30
2018-08-08T05:27:10.204Z,10.38
2018-08-08T05:28:13.907Z,10.30
2018-08-08T05:29:17.757Z,9.58
2018-08-08T05:30:21.601Z,9.43
2018-08-08T05:31:25.212Z,10.08
2018-08-08T05:32:28.858Z,9.80
2018-08-08T05:33:33.413Z,9.48
2018-08-08T05:34:37.113Z,8.30
2018-08-08T05:35:40.789Z,8.60
2018-08-08T05:36:44.726Z,9.35
2018-08-08T05:37:48.773Z,9.03
2018-08-08T05:38:52.308Z,8.53
2018-08-08T05:39:56.513Z,9.03
2018-08-08T05:41:00.053Z,8.73
2018-08-08T05:42:03.854Z,8.73
2018-08-08T05:43:08.256Z,9.13
2018-08-08T05:44:12.534Z,9.08
2018-08-08T05:45:16.750Z,9.18
2018-08-08T05:46:20.301Z,9.58
2018-08-08T05:47:23.892Z,9.15
2018-08-08T05:48:27.517Z,9.68
2018-08-08T05:49:31.165Z,9.68
2018-08-08T05:50:34.766Z,9.90
2018-08-08T05:51:39.378Z,9.60
2018-08-08T05:52:43.608Z,10.20
2018-08-08T05:53:47.868Z,9.15
2018-08-08T05:54:51.405Z,9.93
2018-08-08T05:55:55.042Z,9.48
2018-08-08T05:56:58.592Z,10.00
2018-08-08T05:58:03.127Z,9.05
2018-08-08T05:59:06.627Z,9.70
2018-08-08T06:00:27.394Z,9.15
2018-08-08T06:01:31.004Z,8.55
2018-08-08T06:02:34.481Z,9.53
2018-08-08T06:03:38.045Z,7.95
2018-08-08T06:04:42.223Z,7.72
2018-08-08T06:05:45.952Z,8.83
2018-08-08T06:06:49.493Z,9.23
2018-08-08T06:07:53.519Z,9.33
2018-08-08T06:08:57.047Z,9.23
2018-08-08T06:10:00.569Z,7.83
2018-08-08T06:11:04.060Z,8.43
2018-08-08T06:12:07.679Z,9.45
2018-08-08T06:13:11.718Z,8.60
2018-08-08T06:14:15.364Z,10.03
2018-08-08T06:15:19.157Z,8.03
2018-08-08T06:16:22.797Z,8.20
2018-08-08T06:17:26.779Z,7.28
2018-08-08T06:18:30.322Z,6.22
2018-08-08T06:19:33.871Z,9.28
2018-08-08T06:20:37.361Z,9.55
2018-08-08T06:21:40.858Z,10.05
2018-08-08T06:22:45.541Z,8.60
2018-08-08T06:23:49.926Z,6.55
2018-08-08T06:24:53.461Z,6.95
2018-08-08T06:25:57.199Z,7.37
2018-08-08T06:27:00.764Z,8.78
2018-08-08T06:28:04.286Z,9.05
2018-08-08T06:29:08.606Z,8.75
2018-08-08T06:30:16.772Z,9.70
2018-08-08T06:31:20.907Z,9.10
2018-08-08T06:32:24.574Z,9.23
2018-08-08T06:33:28.085Z,9.13
2018-08-08T06:34:31.689Z,9.13
2018-08-08T06:35:35.272Z,8.38
2018-08-08T06:36:38.755Z,9.83
2018-08-08T06:37:42.373Z,9.05
2018-08-08T06:38:45.895Z,9.05
2018-08-08T06:39:49.525Z,9.35
2018-08-08T06:40:53.109Z,8.88
2018-08-08T06:41:56.654Z,8.88
2018-08-08T06:43:00.187Z,7.83
2018-08-08T06:44:04.072Z,8.35
2018-08-08T06:45:10.464Z,8.03
2018-08-08T06:46:13.988Z,8.10
2018-08-08T06:47:18.324Z,8.50
2018-08-08T06:48:22.460Z,8.05
2018-08-08T06:49:25.990Z,6.72
2018-08-08T06:50:29.775Z,7.72
2018-08-08T06:51:33.398Z,7.33
2018-08-08T06:52:37.285Z,7.95
2018-08-08T06:53:40.819Z,7.37
2018-08-08T06:54:44.701Z,8.03
2018-08-08T06:55:48.216Z,6.92
2018-08-08T06:56:52.012Z,6.42
2018-08-08T06:57:55.629Z,6.47
2018-08-08T06:58:59.189Z,6.17
2018-08-08T07:00:03.468Z,7.40
2018-08-08T07:01:07.182Z,6.92
2018-08-08T07:02:10.778Z,7.80
2018-08-08T07:03:14.298Z,7.25
2018-08-08T07:04:18.627Z,7.80
2018-08-08T07:05:23.009Z,8.45
2018-08-08T07:06:27.071Z,7.90
2018-08-08T07:07:30.680Z,7.85
2018-08-08T07:08:34.155Z,8.05
2018-08-08T07:09:37.873Z,8.63
2018-08-08T07:10:41.476Z,8.43
2018-08-08T07:11:45.120Z,8.40
2018-08-08T07:12:49.000Z,8.30
2018-08-08T07:13:53.277Z,8.35
2018-08-08T07:14:56.813Z,8.30
2018-08-08T07:16:00.403Z,7.37
2018-08-08T07:17:03.978Z,8.35
2018-08-08T07:18:07.573Z,8.58
2018-08-08T07:19:11.396Z,8.93
2018-08-08T07:20:16.275Z,8.20
2018-08-08T07:21:20.059Z,8.25
2018-08-08T07:22:23.580Z,7.67
2018-08-08T07:23:27.103Z,8.43
2018-08-08T07:24:30.853Z,7.67
2018-08-08T07:25:34.642Z,7.10
2018-08-08T07:26:38.274Z,6.53
2018-08-08T07:27:42.587Z,6.22
2018-08-08T07:28:46.125Z,6.95
2018-08-08T07:29:50.719Z,7.85
2018-08-08T07:30:54.322Z,7.70
2018-08-08T07:31:57.903Z,6.78
2018-08-08T07:33:01.420Z,6.87
2018-08-08T07:34:05.937Z,6.28
2018-08-08T07:35:10.357Z,6.47
2018-08-08T07:36:13.956Z,7.03
2018-08-08T07:37:17.504Z,6.20
2018-08-08T07:38:21.824Z,5.83
2018-08-08T07:39:25.590Z,6.12
2018-08-08T07:40:29.129Z,6.65
2018-08-08T07:41:32.631Z,6.72
2018-08-08T07:42:37.041Z,6.65
2018-08-08T07:43:41.054Z,5.28
2018-08-08T07:44:44.584Z,7.62
2018-08-08T07:45:49.036Z,6.08
2018-08-08T07:46:52.593Z,6.55
2018-08-08T07:47:56.200Z,5.97
2018-08-08T07:49:00.382Z,7.12
2018-08-08T07:50:05.496Z,6.12
2018-08-08T07:51:09.779Z,6.40
2018-08-08T07:52:13.359Z,6.55
2018-08-08T07:53:16.988Z,6.60
2018-08-08T07:54:20.575Z,5.67
2018-08-08T07:55:24.483Z,5.65
2018-08-08T07:56:28.000Z,5.97
2018-08-08T07:57:31.614Z,6.25
2018-08-08T07:58:35.915Z,5.90
2018-08-08T07:59:40.221Z,4.85
2018-08-08T08:00:43.787Z,4.80
2018-08-08T08:01:47.273Z,6.17
2018-08-08T08:02:51.714Z,5.97
2018-08-08T08:03:55.280Z,5.80
2018-08-08T08:04:59.002Z,6.53
2018-08-08T08:06:03.038Z,5.25
2018-08-08T08:07:07.421Z,5.08
2018-08-08T08:08:10.959Z,4.95
2018-08-08T08:09:14.530Z,4.90
2018-08-08T08:10:18.089Z,5.35
2018-08-08T08:11:21.599Z,4.47
2018-08-08T08:12:25.175Z,5.92
2018-08-08T08:13:28.708Z,5.17
2018-08-08T08:14:32.393Z,5.50
2018-08-08T08:15:36.009Z,5.03
2018-08-08T08:16:39.464Z,4.55
2018-08-08T08:17:43.440Z,4.87
2018-08-08T08:18:46.953Z,4.80
2018-08-08T08:19:50.394Z,4.92
2018-08-08T08:20:54.748Z,5.10
2018-08-08T08:21:58.301Z,5.05
2018-08-08T08:23:01.826Z,5.20
2018-08-08T08:24:05.637Z,5.20
2018-08-08T08:25:10.676Z,4.78
2018-08-08T08:26:14.237Z,5.25
2018-08-08T08:27:17.731Z,4.50
2018-08-08T08:28:21.310Z,5.72
2018-08-08T08:29:24.863Z,6.30
2018-08-08T08:30:28.505Z,4.47
2018-08-08T08:31:32.040Z,5.03
2018-08-08T08:32:36.052Z,4.50
2018-08-08T08:33:39.592Z,5.15
2018-08-08T08:34:43.945Z,4.60
2018-08-08T08:35:47.634Z,5.05
2018-08-08T08:36:51.153Z,5.35
2018-08-08T08:37:54.843Z,4.47
2018-08-08T08:38:58.446Z,4.87
2018-08-08T08:40:02.331Z,4.58
2018-08-08T08:41:05.895Z,4.60
2018-08-08T08:42:09.401Z,5.00
2018-08-08T08:43:12.945Z,4.65
2018-08-08T08:44:16.603Z,4.58
2018-08-08T08:45:20.223Z,5.20
2018-08-08T08:46:23.736Z,4.95
2018-08-08T08:47:27.311Z,4.85
2018-08-08T08:48:31.161Z,4.75
2018-08-08T08:49:34.726Z,5.17
2018-08-08T08:50:38.875Z,4.50
2018-08-08T08:51:42.509Z,5.10
2018-08-08T08:52:47.194Z,6.05
2018-08-08T08:53:50.749Z,7.95
2018-08-08T08:54:54.820Z,5.05
2018-08-08T08:55:59.104Z,5.08
2018-08-08T08:57:02.862Z,4.70
2018-08-08T08:58:06.812Z,4.67
2018-08-08T08:59:10.512Z,5.25
2018-08-08T09:00:14.644Z,5.28
2018-08-08T09:01:18.199Z,5.83
2018-08-08T09:02:21.932Z,5.22
2018-08-08T09:03:25.937Z,4.72
2018-08-08T09:04:29.480Z,5.33
2018-08-08T09:05:33.060Z,5.53
2018-08-08T09:06:36.600Z,6.05
2018-08-08T09:07:40.342Z,6.47
2018-08-08T09:08:43.876Z,6.35
2018-08-08T09:09:47.443Z,6.55
2018-08-08T09:10:50.952Z,5.67
2018-08-08T09:11:54.594Z,6.60
2018-08-08T09:12:58.175Z,5.78
2018-08-08T09:14:01.790Z,6.35
2018-08-08T09:15:07.220Z,5.42
2018-08-08T09:16:10.901Z,5.45
2018-08-08T09:17:14.384Z,6.78
2018-08-08T09:18:18.275Z,7.33
2018-08-08T09:19:22.427Z,6.03
2018-08-08T09:20:25.939Z,7.08
2018-08-08T09:21:29.464Z,8.55
2018-08-08T09:22:33.243Z,5.17
2018-08-08T09:23:37.308Z,6.35
2018-08-08T09:24:40.920Z,8.58
2018-08-08T09:25:45.163Z,8.95
2018-08-08T09:26:48.702Z,7.92
2018-08-08T09:27:52.373Z,9.35
2018-08-08T09:28:55.832Z,8.78
2018-08-08T09:30:04.625Z,7.90
2018-08-08T09:31:08.132Z,7.20
2018-08-08T09:32:11.781Z,8.55
2018-08-08T09:33:21.214Z,9.55
2018-08-08T09:34:24.782Z,9.40
2018-08-08T09:35:28.687Z,9.50
2018-08-08T09:36:32.499Z,10.93
2018-08-08T09:37:36.503Z,9.73
2018-08-08T09:38:40.115Z,6.65
2018-08-08T09:39:43.879Z,6.75
2018-08-08T09:40:48.012Z,9.55
2018-08-08T09:41:51.618Z,7.33
2018-08-08T09:42:55.209Z,8.73
2018-08-08T09:43:58.813Z,10.75
2018-08-08T09:45:02.422Z,8.60
2018-08-08T09:46:06.076Z,9.98
2018-08-08T09:47:10.292Z,6.10
2018-08-08T09:48:13.846Z,10.60
2018-08-08T09:49:17.356Z,8.65
2018-08-08T09:50:21.409Z,9.43
2018-08-08T09:51:25.224Z,9.58
2018-08-08T09:52:28.748Z,11.38
2018-08-08T09:53:32.356Z,9.33
2018-08-08T09:54:36.209Z,9.68
2018-08-08T09:55:39.879Z,6.75
2018-08-08T09:56:43.508Z,10.63
2018-08-08T09:57:46.980Z,10.63
2018-08-08T09:58:51.059Z,10.80
2018-08-08T09:59:54.596Z,10.95
2018-08-08T10:01:04.124Z,10.20
2018-08-08T10:02:12.973Z,11.78
2018-08-08T10:03:21.884Z,7.47
2018-08-08T10:04:30.620Z,7.78
2018-08-08T10:05:34.182Z,7.62
2018-08-08T10:06:38.511Z,6.80
2018-08-08T10:07:42.068Z,8.68
2018-08-08T10:08:45.683Z,10.08
2018-08-08T10:09:49.781Z,7.08
2018-08-08T10:10:53.409Z,7.42
2018-08-08T10:11:57.165Z,7.37
2018-08-08T10:13:00.642Z,9.45
2018-08-08T10:14:04.316Z,8.33
2018-08-08T10:15:07.893Z,7.33
2018-08-08T10:16:11.644Z,8.08
2018-08-08T10:17:15.354Z,8.65
2018-08-08T10:18:18.893Z,7.58
2018-08-08T10:19:22.803Z,6.83
2018-08-08T10:20:26.446Z,8.60
2018-08-08T10:21:30.417Z,7.85
2018-08-08T10:22:34.139Z,7.60
2018-08-08T10:23:37.645Z,10.40
2018-08-08T10:24:41.821Z,9.08
2018-08-08T10:25:45.307Z,10.10
2018-08-08T10:26:49.056Z,9.65
2018-08-08T10:27:52.654Z,7.72
2018-08-08T10:28:56.154Z,8.25
2018-08-08T10:29:59.694Z,7.92
2018-08-08T10:31:03.292Z,7.67
2018-08-08T10:32:06.918Z,8.13
2018-08-08T10:33:10.685Z,8.10
2018-08-08T10:34:15.171Z,8.43
2018-08-08T10:35:19.248Z,6.45
2018-08-08T10:36:22.768Z,8.18
2018-08-08T10:37:27.866Z,7.70
2018-08-08T10:38:31.363Z,7.78
2018-08-08T10:39:34.882Z,10.90
2018-08-08T10:40:38.388Z,8.73
2018-08-08T10:41:42.341Z,7.37
2018-08-08T10:42:45.860Z,8.90
2018-08-08T10:43:49.617Z,8.53
2018-08-08T10:44:53.194Z,7.28
2018-08-08T10:45:56.673Z,8.65
2018-08-08T10:47:00.282Z,8.25
2018-08-08T10:48:03.996Z,10.15
2018-08-08T10:49:08.501Z,9.40
2018-08-08T10:50:12.891Z,8.23
2018-08-08T10:51:17.044Z,7.25
2018-08-08T10:52:20.733Z,7.95
2018-08-08T10:53:24.303Z,7.90
2018-08-08T10:54:28.037Z,8.05
2018-08-08T10:55:31.630Z,7.90
2018-08-08T10:56:35.146Z,8.83
2018-08-08T10:57:38.688Z,7.53
2018-08-08T10:58:42.174Z,7.80
2018-08-08T10:59:45.794Z,7.90
2018-08-08T11:00:49.285Z,9.23
2018-08-08T11:01:52.892Z,8.03
2018-08-08T11:02:56.464Z,9.08
2018-08-08T11:04:00.066Z,7.80
2018-08-08T11:05:03.841Z,8.98
2018-08-08T11:06:07.509Z,7.35
2018-08-08T11:07:11.066Z,7.75
2018-08-08T11:08:14.625Z,8.95
2018-08-08T11:09:18.218Z,9.80
2018-08-08T11:10:21.733Z,7.37
2018-08-08T11:11:26.698Z,7.67
2018-08-08T11:12:30.165Z,7.70
2018-08-08T11:13:33.876Z,8.88
2018-08-08T11:14:37.480Z,7.05
2018-08-08T11:15:41.089Z,8.58
2018-08-08T11:16:44.605Z,7.92
2018-08-08T11:17:48.176Z,8.28
2018-08-08T11:18:52.154Z,7.30
2018-08-08T11:19:55.997Z,9.78
2018-08-08T11:20:59.506Z,10.38
2018-08-08T11:22:03.360Z,10.68
2018-08-08T11:23:07.414Z,12.53
2018-08-08T11:24:11.622Z,14.23
2018-08-08T11:25:16.066Z,15.35
2018-08-08T11:26:20.069Z,14.75
2018-08-08T11:27:23.662Z,13.93
2018-08-08T11:28:27.721Z,15.32
2018-08-08T11:29:31.638Z,16.52
2018-08-08T11:30:35.594Z,16.20
2018-08-08T11:31:39.182Z,16.60
2018-08-08T11:32:42.764Z,16.35
2018-08-08T11:33:46.404Z,17.15
2018-08-08T11:34:50.443Z,14.70
2018-08-08T11:35:54.428Z,16.07
2018-08-08T11:36:58.553Z,15.85
2018-08-08T11:38:02.539Z,16.52
2018-08-08T11:39:08.319Z,17.60
2018-08-08T11:40:12.908Z,17.25
2018-08-08T11:41:16.504Z,15.85
2018-08-08T11:42:20.966Z,17.42
2018-08-08T11:43:24.627Z,17.32
2018-08-08T11:44:28.621Z,14.13
2018-08-08T11:45:32.532Z,15.48
2018-08-08T11:46:37.265Z,16.32
2018-08-08T11:47:41.110Z,15.83
2018-08-08T11:48:44.623Z,15.20
2018-08-08T11:49:48.373Z,15.23
2018-08-08T11:50:52.210Z,17.55
2018-08-08T11:51:55.830Z,16.23
2018-08-08T11:52:59.425Z,16.20
2018-08-08T11:54:03.481Z,15.58
2018-08-08T11:55:07.216Z,13.88
2018-08-08T11:56:11.675Z,13.38
2018-08-08T11:57:16.337Z,14.47
2018-08-08T11:58:20.308Z,15.93
2018-08-08T11:59:23.850Z,14.18
2018-08-08T12:00:27.491Z,12.98
2018-08-08T12:01:31.393Z,10.85
2018-08-08T12:02:36.060Z,8.98
2018-08-08T12:03:39.818Z,9.20
2018-08-08T12:04:43.528Z,13.78
2018-08-08T12:05:47.027Z,10.08
2018-08-08T12:06:50.841Z,10.10
2018-08-08T12:07:56.181Z,13.18
2018-08-08T12:08:59.931Z,14.28
2018-08-08T12:10:04.430Z,14.65
2018-08-08T12:11:08.031Z,15.05
2018-08-08T12:12:12.166Z,13.58
2018-08-08T12:13:15.788Z,15.23
2018-08-08T12:14:19.564Z,12.88
2018-08-08T12:15:23.203Z,12.43
2018-08-08T12:16:27.521Z,13.50
2018-08-08T12:17:31.540Z,7.08
2018-08-08T12:18:35.150Z,10.40
2018-08-08T12:19:38.806Z,11.18
2018-08-08T12:20:42.563Z,11.78
2018-08-08T12:21:46.195Z,10.25
2018-08-08T12:22:50.022Z,9.70
2018-08-08T12:23:53.608Z,10.90
2018-08-08T12:24:57.128Z,9.48
2018-08-08T12:26:00.704Z,10.75
2018-08-08T12:27:05.828Z,8.23
2018-08-08T12:28:09.373Z,9.10
2018-08-08T12:29:13.034Z,10.15
2018-08-08T12:30:17.945Z,10.10
2018-08-08T12:31:21.573Z,9.43
2018-08-08T12:32:25.062Z,8.23
2018-08-08T12:33:28.586Z,7.83
2018-08-08T12:34:32.089Z,9.00
2018-08-08T12:35:35.664Z,7.92
2018-08-08T12:36:39.388Z,8.30
2018-08-08T12:37:43.270Z,8.23
2018-08-08T12:38:46.813Z,7.90
2018-08-08T12:39:50.396Z,7.42
2018-08-08T12:40:53.917Z,6.97
2018-08-08T12:41:57.583Z,6.78
2018-08-08T12:43:01.262Z,7.15
2018-08-08T12:44:04.857Z,7.58
2018-08-08T12:45:10.032Z,7.22
2018-08-08T12:46:14.128Z,7.20
2018-08-08T12:47:18.153Z,7.22
2018-08-08T12:48:21.682Z,6.65
2018-08-08T12:49:26.090Z,6.42
2018-08-08T12:50:29.691Z,6.22
2018-08-08T12:51:33.712Z,7.70
2018-08-08T12:52:37.413Z,6.72
2018-08-08T12:53:40.888Z,6.28
2018-08-08T12:54:44.469Z,7.10
2018-08-08T12:55:47.967Z,6.75
2018-08-08T12:56:51.707Z,6.00
2018-08-08T12:57:55.240Z,6.28
2018-08-08T12:58:58.776Z,5.40
2018-08-08T13:00:02.376Z,5.97
2018-08-08T13:01:05.901Z,6.42
2018-08-08T13:02:10.257Z,5.45
2018-08-08T13:03:13.900Z,5.58
2018-08-08T13:04:18.171Z,6.10
2018-08-08T13:05:21.823Z,5.62
2018-08-08T13:06:25.475Z,6.10
2018-08-08T13:07:29.216Z,6.33
2018-08-08T13:08:32.809Z,5.90
2018-08-08T13:09:36.356Z,6.17
2018-08-08T13:10:40.227Z,6.37
2018-08-08T13:11:43.928Z,5.62
2018-08-08T13:12:47.426Z,5.60
2018-08-08T13:13:51.363Z,6.40
2018-08-08T13:14:55.127Z,6.17
2018-08-08T13:15:58.780Z,6.17
2018-08-08T13:17:02.294Z,5.70
2018-08-08T13:18:06.247Z,6.28
2018-08-08T13:19:09.764Z,5.97
2018-08-08T13:20:13.288Z,6.08
2018-08-08T13:21:17.326Z,5.83
2018-08-08T13:22:22.062Z,6.25
2018-08-08T13:23:25.730Z,6.90
2018-08-08T13:24:29.365Z,6.12
2018-08-08T13:25:33.325Z,5.70
2018-08-08T13:26:37.908Z,5.90
2018-08-08T13:27:41.472Z,5.55
2018-08-08T13:28:45.570Z,6.05
2018-08-08T13:29:50.356Z,5.95
2018-08-08T13:30:53.978Z,6.08
2018-08-08T13:31:57.461Z,5.70
2018-08-08T13:33:01.021Z,5.60
2018-08-08T13:34:04.572Z,6.30
2018-08-08T13:35:08.503Z,6.00
2018-08-08T13:36:12.354Z,5.90
2018-08-08T13:37:16.629Z,6.37
2018-08-08T13:38:20.824Z,6.08
2018-08-08T13:39:24.445Z,5.90
2018-08-08T13:40:28.035Z,5.65
2018-08-08T13:41:32.099Z,6.03
2018-08-08T13:42:35.983Z,5.40
2018-08-08T13:43:39.528Z,5.80
2018-08-08T13:44:43.082Z,6.05
2018-08-08T13:45:46.641Z,5.92
2018-08-08T13:46:50.184Z,6.10
2018-08-08T13:47:53.775Z,5.58
2018-08-08T13:48:57.417Z,5.58
2018-08-08T13:50:01.146Z,5.55
2018-08-08T13:51:04.744Z,5.90
2018-08-08T13:52:08.422Z,5.87
2018-08-08T13:53:12.581Z,5.50
2018-08-08T13:54:16.332Z,5.50
2018-08-08T13:55:19.874Z,5.67
2018-08-08T13:56:23.416Z,5.15
2018-08-08T13:57:28.219Z,5.40
2018-08-08T13:58:31.776Z,5.33
2018-08-08T13:59:36.449Z,5.30
2018-08-08T14:00:41.229Z,4.75
2018-08-08T14:01:45.681Z,4.80
2018-08-08T14:02:50.177Z,5.40
2018-08-08T14:03:53.856Z,4.65
2018-08-08T14:04:57.399Z,4.50
2018-08-08T14:06:01.644Z,5.67
2018-08-08T14:07:05.422Z,5.47
2018-08-08T14:08:08.991Z,5.20